Terminal Aerodrome Forecast
Issued by NWS Lake Charles, LA

Home | Current Version | Previous Version | Text Only | Print | Product List | Glossary On
Versions: 1 2 3 4 5 6 7 8 9 10 11 12 13 14 15 16
000
FTUS44 KLCH 280736 AAB
TAFLFT
TAF AMD
KLFT 280736Z 2808/2906 14005KT P6SM BKN013 BKN020 OVC030
      TEMPO 2810/2814 BKN008 OVC013
     FM281400 16014G22KT 4SM BR OVC025
     FM282000 18016G24KT P6SM OVC025=

USA.gov is the U.S. government's official web portal to all federal, state and local government web resources and services.